Time;durP1;ratioP1;P1;durP2;ratioP2;P2;SDS_P1;SDS_P2;PMS_P1;PMS_P2;Temp;Humidity;BMP_temperature;BMP_pressure;BME280_temperature;BME280_humidity;BME280_pressure;Samples;Min_cycle;Max_cycle;Signal;HPM_P1;HPM_P2
2023/01/06 00:01:08;;;;;;;47.88;30.02;;;11.50;92.00;;;;;;6312061;22;20005;-80
2023/01/06 00:03:35;;;;;;;45.22;29.08;;;11.40;92.00;;;;;;6339934;22;20033;-80
2023/01/06 00:06:02;;;;;;;44.13;29.98;;;11.40;92.00;;;;;;6340497;22;19998;-80
2023/01/06 00:08:28;;;;;;;46.75;30.38;;;11.40;92.10;;;;;;6339946;22;20571;-80
2023/01/06 00:10:54;;;;;;;49.22;31.80;;;11.40;92.20;;;;;;6340132;22;20003;-80
2023/01/06 00:13:21;;;;;;;43.38;28.80;;;11.40;92.20;;;;;;6340056;22;20003;-80
2023/01/06 00:15:47;;;;;;;47.95;30.35;;;11.40;92.20;;;;;;6340108;22;20003;-80
2023/01/06 00:18:12;;;;;;;46.30;30.08;;;11.30;92.30;;;;;;6312509;22;20007;-80
2023/01/06 00:20:38;;;;;;;45.20;29.33;;;11.30;92.40;;;;;;6340037;22;19995;-80
2023/01/06 00:23:04;;;;;;;47.78;30.38;;;11.30;92.40;;;;;;6340123;22;20048;-80
2023/01/06 00:25:29;;;;;;;46.22;29.17;;;11.30;92.50;;;;;;6339042;22;20021;-80
2023/01/06 00:27:55;;;;;;;46.15;30.48;;;11.30;92.50;;;;;;6311927;22;20006;-80
2023/01/06 00:30:22;;;;;;;43.17;28.40;;;11.30;92.50;;;;;;6340134;22;20070;-80
2023/01/06 00:32:47;;;;;;;47.47;30.40;;;11.20;92.50;;;;;;6312091;22;20410;-80
2023/01/06 00:35:13;;;;;;;45.95;30.85;;;11.20;92.60;;;;;;6339801;22;20056;-79
2023/01/06 00:37:39;;;;;;;43.83;28.73;;;11.20;92.60;;;;;;6335918;22;20006;-79
2023/01/06 00:40:05;;;;;;;43.70;28.60;;;11.20;92.70;;;;;;6337446;22;20005;-78
2023/01/06 00:42:31;;;;;;;44.47;29.13;;;11.30;92.70;;;;;;6339474;22;20421;-78
2023/01/06 00:44:56;;;;;;;41.67;28.45;;;11.30;92.70;;;;;;6339646;22;19997;-78
2023/01/06 00:47:22;;;;;;;45.38;28.65;;;11.30;92.80;;;;;;6339010;22;20015;-78
2023/01/06 00:49:48;;;;;;;46.00;28.75;;;11.30;92.70;;;;;;6338636;22;19995;-78
2023/01/06 00:52:14;;;;;;;46.95;29.38;;;11.30;92.80;;;;;;6312321;22;20029;-77
2023/01/06 00:54:40;;;;;;;44.53;28.65;;;11.30;92.80;;;;;;6312241;22;20313;-78
2023/01/06 00:57:06;;;;;;;46.65;30.40;;;11.30;92.80;;;;;;6338801;22;20002;-78
2023/01/06 00:59:32;;;;;;;44.45;28.95;;;11.30;92.80;;;;;;6339492;22;20373;-77
2023/01/06 01:01:58;;;;;;;41.97;29.02;;;11.30;92.80;;;;;;6339544;22;19995;-77
2023/01/06 01:04:25;;;;;;;43.38;29.65;;;11.30;92.80;;;;;;6339855;22;19995;-77
2023/01/06 01:06:51;;;;;;;42.85;29.00;;;11.30;92.80;;;;;;6339573;22;20003;-77
2023/01/06 01:09:23;;;;;;;43.08;29.58;;;11.30;92.80;;;;;;6339556;22;20003;-78
2023/01/06 01:12:08;;;;;;;45.15;30.40;;;11.30;92.80;;;;;;6311465;22;20124;-78
2023/01/06 01:14:53;;;;;;;49.20;31.23;;;11.20;92.80;;;;;;6339555;22;20002;-78
2023/01/06 01:17:29;;;;;;;44.75;29.10;;;11.20;92.90;;;;;;6339118;22;20432;-78
2023/01/06 01:19:56;;;;;;;44.50;30.10;;;11.20;92.90;;;;;;6339475;22;20002;-78
2023/01/06 01:22:23;;;;;;;48.33;30.45;;;11.20;92.90;;;;;;6339695;22;20009;-78
2023/01/06 01:24:49;;;;;;;48.55;30.95;;;11.20;93.00;;;;;;6338710;22;20038;-77
2023/01/06 01:27:16;;;;;;;44.50;29.85;;;11.20;93.10;;;;;;6339314;22;19995;-78
2023/01/06 01:29:41;;;;;;;48.47;31.23;;;11.20;93.00;;;;;;6339005;22;20356;-78
2023/01/06 01:32:07;;;;;;;49.65;31.05;;;11.20;93.00;;;;;;6339114;22;19999;-78
2023/01/06 01:34:33;;;;;;;43.20;29.10;;;11.20;93.00;;;;;;6339723;22;20420;-78
2023/01/06 01:37:00;;;;;;;44.33;29.58;;;11.20;93.00;;;;;;6339120;22;20071;-78
2023/01/06 01:39:29;;;;;;;45.13;29.95;;;11.20;93.10;;;;;;6339290;22;20141;-79
2023/01/06 01:41:56;;;;;;;42.83;28.93;;;11.20;93.10;;;;;;6339229;22;20003;-79
2023/01/06 01:44:55;;;;;;;44.15;29.60;;;11.30;93.10;;;;;;6338808;22;20009;-78
2023/01/06 01:47:41;;;;;;;44.65;29.58;;;11.30;93.10;;;;;;6338721;22;20056;-80
2023/01/06 01:50:13;;;;;;;49.25;30.30;;;11.30;93.10;;;;;;6339167;22;20022;-79
2023/01/06 01:52:41;;;;;;;42.30;29.17;;;11.30;93.00;;;;;;6339283;22;19995;-79
2023/01/06 01:55:09;;;;;;;45.17;29.83;;;11.30;93.00;;;;;;6311138;22;20325;-79
2023/01/06 01:58:05;;;;;;;46.70;30.67;;;11.30;93.00;;;;;;6338151;22;20026;-79
2023/01/06 02:00:30;;;;;;;48.78;30.67;;;11.30;93.10;;;;;;6338832;22;19995;-79
2023/01/06 02:02:57;;;;;;;47.67;31.10;;;11.30;93.10;;;;;;6339151;22;19999;-79
2023/01/06 02:05:26;;;;;;;45.67;30.35;;;11.30;93.10;;;;;;6338588;22;20060;-79
2023/01/06 02:07:53;;;;;;;46.63;30.70;;;11.30;93.10;;;;;;6338896;22;20018;-80
2023/01/06 02:10:21;;;;;;;46.55;29.48;;;11.30;93.00;;;;;;6338876;22;20003;-79
2023/01/06 02:12:51;;;;;;;44.05;29.42;;;11.30;93.10;;;;;;6338722;22;20002;-80
2023/01/06 02:15:29;;;;;;;46.85;30.25;;;11.30;93.10;;;;;;6338958;22;20002;-80
2023/01/06 02:17:58;;;;;;;44.92;29.77;;;11.30;93.20;;;;;;6311153;22;20056;-80
2023/01/06 02:20:47;;;;;;;44.55;30.10;;;11.40;93.20;;;;;;6338862;22;19999;-79
2023/01/06 02:23:31;;;;;;;42.35;29.23;;;11.40;93.20;;;;;;6338992;22;20444;-80
2023/01/06 02:26:12;;;;;;;49.15;33.00;;;11.40;93.20;;;;;;6338477;22;19998;-80
2023/01/06 02:29:08;;;;;;;47.08;30.92;;;11.40;93.10;;;;;;6338637;22;20002;-79
2023/01/06 02:31:55;;;;;;;43.78;29.60;;;11.40;93.10;;;;;;6339060;22;20003;-81
2023/01/06 02:34:45;;;;;;;45.63;30.33;;;11.40;93.10;;;;;;6338847;22;20145;-73
2023/01/06 02:37:11;;;;;;;;;;;11.40;93.20;;;;;;6339073;22;20010;-72
2023/01/06 02:39:49;;;;;;;45.85;29.58;;;11.40;93.20;;;;;;6338713;22;20217;-73
2023/01/06 02:42:28;;;;;;;44.40;30.83;;;11.40;93.20;;;;;;6338756;22;20051;-72
2023/01/06 02:45:14;;;;;;;48.83;30.90;;;11.40;93.20;;;;;;6338811;22;20379;-72
2023/01/06 02:48:15;;;;;;;49.20;30.80;;;11.40;93.30;;;;;;6310526;22;20252;-72
2023/01/06 02:50:51;;;;;;;47.97;29.95;;;11.40;93.30;;;;;;6338713;22;19999;-72
2023/01/06 02:53:38;;;;;;;49.40;31.48;;;11.40;93.30;;;;;;6310278;22;19999;-72
2023/01/06 02:56:04;;;;;;;45.92;31.10;;;11.40;93.30;;;;;;6338451;22;19999;-72
2023/01/06 02:58:52;;;;;;;47.20;31.35;;;11.50;93.30;;;;;;6338671;22;20356;-72
2023/01/06 03:01:39;;;;;;;48.17;32.00;;;11.40;93.20;;;;;;6338823;22;19999;-72
2023/01/06 03:04:10;;;;;;;46.40;30.75;;;11.50;93.30;;;;;;6338433;22;20057;-72
2023/01/06 03:06:43;;;;;;;52.28;31.23;;;11.50;93.40;;;;;;6338487;22;20003;-72
2023/01/06 03:09:13;;;;;;;51.33;32.17;;;11.50;93.30;;;;;;6338404;22;20082;-72
2023/01/06 03:11:41;;;;;;;47.60;30.27;;;11.50;93.30;;;;;;6338191;22;20009;-72
2023/01/06 03:14:13;;;;;;;49.08;31.75;;;11.50;93.30;;;;;;6338533;22;20026;-72
2023/01/06 03:16:39;;;;;;;51.05;31.75;;;11.50;93.30;;;;;;6338807;22;20038;-71
2023/01/06 03:19:04;;;;;;;47.65;30.88;;;11.50;93.30;;;;;;6338543;22;20003;-71
2023/01/06 03:21:38;;;;;;;48.38;30.58;;;11.50;93.30;;;;;;6309964;22;20045;-72
2023/01/06 03:24:06;;;;;;;51.83;31.85;;;11.50;93.30;;;;;;6338112;22;20025;-72
2023/01/06 03:26:32;;;;;;;46.95;31.17;;;11.50;93.30;;;;;;6311026;22;20003;-72
2023/01/06 03:28:59;;;;;;;46.28;30.25;;;11.50;93.30;;;;;;6338472;22;19999;-71
2023/01/06 03:31:31;;;;;;;49.83;32.60;;;11.50;93.20;;;;;;6337789;22;20003;-72
2023/01/06 03:34:18;;;;;;;48.20;32.30;;;11.50;93.20;;;;;;6339149;22;20010;-72
2023/01/06 03:36:44;;;;;;;49.10;31.90;;;11.50;93.30;;;;;;6340540;22;20075;-72
2023/01/06 03:39:31;;;;;;;50.05;31.45;;;11.50;93.30;;;;;;6340328;22;20092;-72
2023/01/06 03:45:18;;;;;;;53.65;32.97;;;11.50;93.40;;;;;;6340153;22;20482;-72
2023/01/06 03:48:04;;;;;;;48.90;31.92;;;11.50;93.30;;;;;;6340080;22;20010;-72
2023/01/06 03:51:00;;;;;;;50.20;30.95;;;11.50;93.40;;;;;;6340359;22;19999;-72
2023/01/06 03:53:32;;;;;;;52.28;33.30;;;11.60;93.40;;;;;;6338315;22;20034;-72
2023/01/06 03:56:27;;;;;;;51.47;32.70;;;11.60;93.40;;;;;;6340181;22;19999;-72
2023/01/06 03:58:58;;;;;;;52.35;31.35;;;11.50;93.40;;;;;;6337203;22;20097;-71
2023/01/06 04:01:25;;;;;;;46.17;31.40;;;11.60;93.40;;;;;;6340123;22;20006;-72
2023/01/06 04:03:52;;;;;;;48.88;31.23;;;11.60;93.50;;;;;;6339664;22;19999;-72
2023/01/06 04:06:18;;;;;;;49.15;31.70;;;11.60;93.50;;;;;;6327165;22;19999;-72
2023/01/06 04:08:44;;;;;;;45.13;30.35;;;11.60;93.50;;;;;;6339905;22;20093;-72
2023/01/06 04:12:37;;;;;;;49.13;31.27;;;11.60;93.40;;;;;;6339770;22;20052;-72
2023/01/06 04:13:58;;;;;;;46.40;30.13;;;11.70;93.50;;;;;;6339738;22;20441;-72
2023/01/06 04:16:24;;;;;;;49.05;31.25;;;11.70;93.40;;;;;;6339732;22;20055;-71
2023/01/06 04:18:50;;;;;;;52.40;32.78;;;11.60;93.40;;;;;;6339861;22;20082;-72
2023/01/06 04:21:17;;;;;;;57.78;34.25;;;11.70;93.40;;;;;;6340009;22;20003;-72
2023/01/06 04:23:43;;;;;;;55.45;34.20;;;11.70;93.40;;;;;;6339816;22;20009;-71
2023/01/06 04:26:09;;;;;;;50.33;33.33;;;11.70;93.40;;;;;;6339820;22;19998;-71
2023/01/06 04:28:35;;;;;;;61.15;37.15;;;11.80;93.50;;;;;;6339751;22;20357;-72
2023/01/06 04:31:01;;;;;;;61.35;35.42;;;11.80;93.40;;;;;;6339544;22;20052;-71
2023/01/06 04:33:27;;;;;;;59.35;35.42;;;11.80;93.40;;;;;;6312139;22;20011;-71
2023/01/06 04:35:53;;;;;;;60.55;36.65;;;11.80;93.40;;;;;;6339722;22;20006;-72
2023/01/06 04:38:19;;;;;;;60.72;37.15;;;11.80;93.40;;;;;;6340115;22;20003;-71
2023/01/06 04:40:45;;;;;;;56.50;36.08;;;11.80;93.40;;;;;;6311895;22;20329;-73
2023/01/06 04:43:15;;;;;;;53.45;34.38;;;11.90;93.40;;;;;;6339339;22;19998;-73
2023/01/06 04:45:42;;;;;;;55.40;33.95;;;11.90;93.40;;;;;;6312336;22;20433;-73
2023/01/06 04:48:08;;;;;;;55.78;35.03;;;11.90;93.40;;;;;;6339740;22;20011;-72
2023/01/06 04:50:35;;;;;;;52.92;33.67;;;11.90;93.40;;;;;;6339562;22;20010;-73
2023/01/06 04:53:00;;;;;;;53.47;34.42;;;11.90;93.40;;;;;;6338686;22;20331;-73
2023/01/06 04:55:28;;;;;;;55.25;33.53;;;11.90;93.40;;;;;;6339600;22;20006;-73
2023/01/06 04:57:53;;;;;;;61.42;36.20;;;11.90;93.30;;;;;;6339561;22;20301;-73
2023/01/06 05:00:19;;;;;;;53.67;33.92;;;11.90;93.40;;;;;;6339991;22;20078;-73
2023/01/06 05:02:46;;;;;;;53.88;33.60;;;11.90;93.40;;;;;;6311619;22;20003;-73
2023/01/06 05:05:12;;;;;;;48.83;32.78;;;11.90;93.40;;;;;;6339856;22;20001;-73
2023/01/06 05:07:38;;;;;;;50.10;30.98;;;11.80;93.40;;;;;;6339567;22;20025;-73
2023/01/06 05:10:06;;;;;;;52.28;33.25;;;11.80;93.40;;;;;;6286187;22;20445;-73
2023/01/06 05:12:32;;;;;;;50.30;32.75;;;11.80;93.40;;;;;;6339560;22;20003;-73
2023/01/06 05:14:58;;;;;;;52.30;33.58;;;11.80;93.40;;;;;;6339064;22;20002;-73
2023/01/06 05:17:24;;;;;;;49.63;32.95;;;11.80;93.40;;;;;;6339327;22;20060;-73
2023/01/06 05:19:50;;;;;;;48.00;31.85;;;11.80;93.40;;;;;;6339704;22;19995;-74
2023/01/06 05:22:15;;;;;;;48.17;32.10;;;11.80;93.40;;;;;;6339201;22;19995;-74
2023/01/06 05:24:41;;;;;;;48.47;33.22;;;11.80;93.40;;;;;;6339395;22;20069;-74
2023/01/06 05:27:07;;;;;;;48.05;31.85;;;11.70;93.40;;;;;;6339568;22;19995;-73
2023/01/06 05:29:33;;;;;;;51.05;32.38;;;11.80;93.40;;;;;;6339079;22;20005;-73
2023/01/06 05:31:59;;;;;;;47.70;31.00;;;11.70;93.50;;;;;;6339233;22;20006;-72
2023/01/06 05:34:25;;;;;;;49.47;31.75;;;11.80;93.50;;;;;;6339179;22;20334;-72
2023/01/06 05:36:51;;;;;;;45.17;30.23;;;11.70;93.50;;;;;;6339292;22;19998;-72
2023/01/06 05:39:17;;;;;;;49.25;31.15;;;11.70;93.50;;;;;;6339197;22;20006;-72
2023/01/06 05:41:42;;;;;;;45.00;31.30;;;11.70;93.50;;;;;;6311479;22;20329;-71
2023/01/06 05:44:08;;;;;;;44.47;30.70;;;11.70;93.50;;;;;;6339266;22;20002;-72
2023/01/06 05:46:33;;;;;;;49.63;30.55;;;11.70;93.50;;;;;;6339073;22;20009;-72
2023/01/06 05:49:00;;;;;;;49.53;31.33;;;11.70;93.60;;;;;;6339351;22;20082;-72
2023/01/06 05:51:27;;;;;;;48.85;32.20;;;11.70;93.60;;;;;;6338499;22;20006;-71
2023/01/06 05:53:53;;;;;;;44.85;30.55;;;11.70;93.50;;;;;;6338549;22;20006;-71
2023/01/06 05:56:21;;;;;;;47.22;31.00;;;11.70;93.50;;;;;;6324996;22;20069;-72
2023/01/06 05:58:49;;;;;;;49.83;31.35;;;11.70;93.60;;;;;;6311438;22;20003;-72
2023/01/06 06:01:27;;;;;;;50.97;31.40;;;11.70;93.60;;;;;;6338918;22;20003;-72
2023/01/06 06:03:53;;;;;;;52.03;30.92;;;11.70;93.60;;;;;;6338736;22;20006;-72
2023/01/06 06:06:21;;;;;;;47.25;30.73;;;11.70;93.60;;;;;;6338830;22;20030;-72
2023/01/06 06:08:47;;;;;;;45.15;30.90;;;11.70;93.60;;;;;;6338906;22;20034;-73
2023/01/06 06:11:14;;;;;;;47.03;30.40;;;11.70;93.70;;;;;;6338579;22;20034;-73
2023/01/06 06:13:54;;;;;;;47.67;30.52;;;11.70;93.60;;;;;;6338327;22;19999;-73
2023/01/06 06:16:23;;;;;;;48.15;31.13;;;11.70;93.60;;;;;;6338939;22;20433;-74
2023/01/06 06:18:53;;;;;;;48.33;32.55;;;11.70;93.70;;;;;;6338699;22;20003;-71
2023/01/06 06:21:22;;;;;;;53.00;32.78;;;11.60;93.70;;;;;;6338631;22;19998;-71
2023/01/06 06:23:48;;;;;;;45.92;30.08;;;11.60;93.70;;;;;;6338808;22;20006;-71
2023/01/06 06:26:14;;;;;;;49.70;32.47;;;11.60;93.70;;;;;;6338665;22;20014;-71
2023/01/06 06:28:41;;;;;;;41.58;29.15;;;11.60;93.80;;;;;;6338408;22;20417;-71
2023/01/06 06:31:19;;;;;;;47.28;30.40;;;11.60;93.80;;;;;;6338489;22;20002;-72
2023/01/06 06:33:45;;;;;;;46.92;29.92;;;11.80;93.80;;;;;;6338634;22;20270;-71
2023/01/06 06:36:14;;;;;;;46.65;30.42;;;11.60;93.70;;;;;;6338290;22;20244;-71
2023/01/06 06:38:40;;;;;;;42.75;28.63;;;11.60;93.70;;;;;;6337953;22;20361;-72
2023/01/06 06:41:06;;;;;;;47.28;31.48;;;11.60;93.70;;;;;;6338081;22;19995;-72
2023/01/06 06:43:32;;;;;;;45.95;29.98;;;11.60;93.70;;;;;;6338543;22;20146;-72
2023/01/06 06:45:58;;;;;;;45.05;29.08;;;11.60;93.80;;;;;;6338556;22;19995;-72
2023/01/06 06:48:24;;;;;;;47.20;30.67;;;11.60;93.70;;;;;;6338278;22;20010;-72
2023/01/06 06:51:20;;;;;;;41.83;28.83;;;11.60;93.70;;;;;;6338067;22;20010;-72
2023/01/06 06:53:46;;;;;;;43.25;28.52;;;11.60;93.80;;;;;;6318244;22;20003;-72
2023/01/06 06:56:14;;;;;;;44.88;29.17;;;11.60;93.80;;;;;;6338376;22;20000;-72
2023/01/06 06:58:40;;;;;;;46.63;30.90;;;11.60;93.70;;;;;;6338002;22;20006;-72
2023/01/06 07:01:08;;;;;;;41.72;28.30;;;11.60;93.80;;;;;;6338083;22;19995;-73
2023/01/06 07:03:34;;;;;;;46.95;30.50;;;11.60;93.70;;;;;;6337440;22;19995;-73
2023/01/06 07:06:02;;;;;;;40.60;27.27;;;11.60;93.80;;;;;;6338326;22;20005;-72
2023/01/06 07:08:28;;;;;;;48.55;29.95;;;11.60;93.70;;;;;;6338857;22;19999;-74
2023/01/06 07:10:54;;;;;;;45.53;28.70;;;11.60;93.80;;;;;;6339692;22;20445;-73
2023/01/06 07:13:19;;;;;;;45.42;29.30;;;11.60;93.80;;;;;;6340259;22;19999;-72
2023/01/06 07:15:45;;;;;;;44.25;28.42;;;11.60;93.80;;;;;;6340748;22;19998;-73
2023/01/06 07:18:11;;;;;;;48.15;31.95;;;11.60;93.80;;;;;;6339562;22;20009;-74
2023/01/06 07:20:38;;;;;;;48.58;30.58;;;11.60;93.80;;;;;;6340065;22;20003;-73
2023/01/06 07:23:04;;;;;;;44.28;29.52;;;11.60;93.80;;;;;;6340399;22;20056;-73
2023/01/06 07:25:30;;;;;;;42.78;28.75;;;11.60;93.80;;;;;;6312513;22;20006;-73
2023/01/06 07:27:58;;;;;;;46.78;31.10;;;11.70;93.80;;;;;;6339765;22;19999;-73
2023/01/06 07:30:26;;;;;;;42.92;29.15;;;11.70;93.80;;;;;;6339770;22;20078;-73
2023/01/06 07:32:52;;;;;;;46.65;29.92;;;11.70;93.80;;;;;;6339806;22;20003;-73
2023/01/06 07:35:18;;;;;;;44.33;29.50;;;11.70;93.80;;;;;;6339625;22;20402;-73
2023/01/06 07:37:44;;;;;;;43.80;29.77;;;11.70;93.80;;;;;;6339526;22;20026;-73
2023/01/06 07:40:10;;;;;;;45.92;29.80;;;11.70;93.80;;;;;;6339851;22;19994;-73
2023/01/06 07:42:36;;;;;;;43.63;30.83;;;11.80;93.90;;;;;;6340055;22;20003;-73
2023/01/06 07:45:06;;;;;;;47.53;30.65;;;11.70;93.90;;;;;;6312467;22;20026;-73
2023/01/06 07:47:32;;;;;;;;;;;11.80;93.90;;;;;;6340631;22;20011;-73
2023/01/06 07:49:57;;;;;;;50.03;30.80;;;11.80;93.80;;;;;;6340041;22;20375;-73
2023/01/06 07:52:23;;;;;;;47.72;31.17;;;11.80;93.80;;;;;;6339542;22;20007;-73
2023/01/06 07:54:49;;;;;;;48.67;29.63;;;11.80;93.70;;;;;;6339884;22;20357;-73
2023/01/06 07:57:14;;;;;;;47.78;31.13;;;11.90;93.90;;;;;;6340265;22;20350;-72
2023/01/06 07:59:40;;;;;;;51.83;33.08;;;11.90;93.80;;;;;;6340130;22;20494;-72
2023/01/06 08:02:06;;;;;;;51.10;31.23;;;11.90;93.70;;;;;;6339791;22;20056;-73
2023/01/06 08:04:34;;;;;;;53.38;32.20;;;12.00;93.70;;;;;;6339937;22;20066;-73
2023/01/06 08:07:00;;;;;;;53.22;32.83;;;12.00;93.40;;;;;;6339670;22;20086;-73
2023/01/06 08:09:25;;;;;;;53.10;32.45;;;12.10;93.50;;;;;;6339739;22;20046;-73
2023/01/06 08:11:51;;;;;;;52.92;33.30;;;12.10;93.40;;;;;;6339010;22;20006;-78
2023/01/06 08:14:17;;;;;;;49.65;31.63;;;12.20;93.30;;;;;;6338825;22;20017;-78
2023/01/06 08:16:43;;;;;;;50.83;32.25;;;12.20;93.30;;;;;;6327620;22;20357;-73
2023/01/06 08:19:08;;;;;;;53.08;33.33;;;12.20;93.20;;;;;;6335369;22;20003;-72
2023/01/06 08:21:34;;;;;;;50.90;31.65;;;12.20;93.00;;;;;;6337555;22;20002;-72
2023/01/06 08:24:00;;;;;;;47.45;30.58;;;12.20;93.00;;;;;;6338527;22;20306;-72
2023/01/06 08:26:25;;;;;;;48.13;30.15;;;12.20;92.90;;;;;;6338544;22;19999;-72
2023/01/06 08:28:52;;;;;;;48.88;31.05;;;12.20;92.90;;;;;;6338717;22;20051;-73
2023/01/06 08:31:20;;;;;;;48.80;30.13;;;12.10;92.90;;;;;;6339204;22;20002;-72
2023/01/06 08:33:46;;;;;;;45.80;28.42;;;12.10;92.80;;;;;;6339296;22;19999;-72
2023/01/06 08:36:16;;;;;;;48.35;29.35;;;12.10;92.80;;;;;;6339333;22;20025;-72
2023/01/06 08:38:42;;;;;;;47.60;28.90;;;12.20;92.80;;;;;;6339679;22;20002;-72
2023/01/06 08:41:08;;;;;;;45.95;28.08;;;12.10;92.80;;;;;;6339476;22;19995;-72
2023/01/06 08:43:35;;;;;;;45.58;28.50;;;12.10;92.80;;;;;;6339777;22;20006;-72
2023/01/06 08:46:03;;;;;;;45.38;28.77;;;12.20;92.80;;;;;;6340028;22;20413;-72
2023/01/06 08:48:30;;;;;;;43.38;27.85;;;12.20;92.80;;;;;;6339231;22;20014;-72
2023/01/06 08:51:11;;;;;;;46.97;28.48;;;12.20;92.70;;;;;;6311464;22;20007;-72
2023/01/06 08:53:38;;;;;;;42.55;26.58;;;12.20;92.90;;;;;;6339382;22;20007;-72
2023/01/06 08:56:04;;;;;;;47.78;29.73;;;12.20;92.70;;;;;;6339309;22;20007;-72
2023/01/06 08:58:30;;;;;;;45.03;27.45;;;12.30;92.70;;;;;;6339052;22;19998;-72
2023/01/06 09:00:56;;;;;;;47.50;28.02;;;12.30;92.70;;;;;;6339778;22;20006;-72
2023/01/06 09:03:21;;;;;;;47.10;29.05;;;12.30;92.70;;;;;;6339442;22;20444;-72
2023/01/06 09:05:55;;;;;;;44.00;28.88;;;12.30;92.70;;;;;;6339329;22;20002;-72
2023/01/06 09:08:21;;;;;;;46.08;27.90;;;12.40;92.70;;;;;;6339530;22;20003;-72
2023/01/06 09:10:46;;;;;;;42.08;26.80;;;12.40;92.70;;;;;;6338750;22;20079;-73
2023/01/06 09:13:12;;;;;;;41.88;27.45;;;12.40;92.70;;;;;;6334999;22;20393;-72
2023/01/06 09:15:42;;;;;;;46.13;26.70;;;12.40;92.70;;;;;;6337690;22;19999;-72
2023/01/06 09:18:09;;;;;;;43.67;26.65;;;12.40;92.60;;;;;;6338097;22;20009;-72
2023/01/06 09:20:35;;;;;;;44.85;27.00;;;12.40;92.50;;;;;;6338366;22;19998;-72
2023/01/06 09:23:01;;;;;;;45.75;26.90;;;12.40;92.50;;;;;;6338025;22;19999;-72
2023/01/06 09:25:26;;;;;;;41.45;27.27;;;12.40;92.40;;;;;;6338026;22;20013;-73
2023/01/06 09:27:52;;;;;;;43.05;27.45;;;12.40;92.50;;;;;;6338541;22;20003;-72
2023/01/06 09:30:18;;;;;;;41.65;26.95;;;12.50;92.50;;;;;;6338857;22;20010;-73
2023/01/06 09:32:44;;;;;;;41.58;24.92;;;12.50;92.50;;;;;;6338157;22;20075;-72
2023/01/06 09:35:10;;;;;;;38.88;25.38;;;12.50;92.40;;;;;;6337877;22;20030;-73
2023/01/06 09:37:35;;;;;;;40.40;24.73;;;12.50;92.30;;;;;;6338753;22;20076;-73
2023/01/06 09:40:02;;;;;;;42.47;26.05;;;12.50;92.30;;;;;;6338620;22;19999;-73
2023/01/06 09:42:46;;;;;;;44.55;25.10;;;12.50;92.20;;;;;;6338708;22;19999;-73
2023/01/06 09:45:24;;;;;;;44.63;27.85;;;12.50;92.20;;;;;;6337841;22;20022;-72
2023/01/06 09:47:57;;;;;;;43.33;25.55;;;12.40;92.10;;;;;;6338251;22;20496;-72
2023/01/06 09:50:38;;;;;;;38.25;24.17;;;12.40;92.20;;;;;;6333494;22;20435;-72
2023/01/06 09:53:08;;;;;;;36.55;24.40;;;12.50;92.20;;;;;;6338448;22;19998;-72
2023/01/06 09:55:39;;;;;;;40.22;24.67;;;12.50;92.20;;;;;;6338086;22;20003;-72
2023/01/06 09:58:21;;;;;;;36.53;23.27;;;12.40;92.00;;;;;;6338385;22;20002;-72
2023/01/06 10:00:52;;;;;;;35.92;22.70;;;12.40;92.20;;;;;;6338987;22;20002;-73
2023/01/06 10:03:23;;;;;;;42.78;25.33;;;12.50;92.20;;;;;;6338308;22;20074;-72
2023/01/06 10:06:25;;;;;;;38.17;23.15;;;12.50;92.10;;;;;;6337800;22;20010;-72
2023/01/06 10:09:00;;;;;;;35.45;23.10;;;12.60;92.00;;;;;;6321088;22;20027;-72
2023/01/06 10:11:51;;;;;;;36.38;22.65;;;12.60;91.90;;;;;;6338763;22;20069;-72
2023/01/06 10:14:26;;;;;;;35.90;22.23;;;12.60;91.80;;;;;;6338778;22;20009;-72
2023/01/06 10:17:31;;;;;;;37.03;22.52;;;12.60;91.80;;;;;;6337870;22;20405;-73
2023/01/06 10:20:06;;;;;;;36.10;23.40;;;12.60;91.90;;;;;;6337956;22;19999;-72
2023/01/06 10:23:02;;;;;;;38.22;24.85;;;12.70;91.90;;;;;;6338694;22;19999;-72
2023/01/06 10:25:35;;;;;;;38.67;23.42;;;12.70;92.10;;;;;;6338460;22;20078;-72
2023/01/06 10:28:36;;;;;;;36.28;22.80;;;12.80;92.10;;;;;;6337753;22;20006;-72
2023/01/06 10:31:09;;;;;;;34.58;21.42;;;12.80;92.00;;;;;;6338516;22;20006;-78
2023/01/06 10:33:45;;;;;;;39.25;23.50;;;12.80;91.90;;;;;;6338454;22;19999;-78
2023/01/06 10:36:16;;;;;;;35.65;21.77;;;12.80;91.60;;;;;;6338150;22;20409;-77
2023/01/06 10:38:48;;;;;;;33.35;21.23;;;12.80;91.40;;;;;;6338769;22;20045;-77
2023/01/06 10:41:22;;;;;;;35.70;21.80;;;12.80;91.40;;;;;;6338677;22;20060;-78
2023/01/06 10:43:47;;;;;;;39.90;24.73;;;12.80;91.40;;;;;;6310601;22;20304;-77
2023/01/06 10:46:14;;;;;;;38.80;23.45;;;12.80;91.50;;;;;;6338879;22;20085;-78
2023/01/06 10:48:41;;;;;;;37.63;23.20;;;12.90;91.50;;;;;;6338196;22;20011;-77
2023/01/06 10:51:34;;;;;;;35.75;22.33;;;12.90;91.50;;;;;;6338778;22;20041;-78
2023/01/06 10:54:17;;;;;;;33.63;21.35;;;12.90;91.40;;;;;;6338217;22;20455;-77
2023/01/06 10:56:47;;;;;;;31.00;20.35;;;13.00;91.40;;;;;;6338522;22;20413;-77
2023/01/06 10:59:13;;;;;;;;;;;13.00;91.40;;;;;;6338640;22;20447;-77
2023/01/06 11:01:55;;;;;;;31.13;19.42;;;13.00;91.30;;;;;;6310986;22;19898;-78
2023/01/06 11:04:23;;;;;;;32.78;19.95;;;13.00;91.20;;;;;;6338716;22;19995;-77
2023/01/06 11:07:01;;;;;;;33.13;20.35;;;13.00;91.10;;;;;;6338229;22;20079;-77
2023/01/06 11:09:37;;;;;;;34.22;18.83;;;13.00;91.20;;;;;;6337889;22;20102;-78
2023/01/06 11:12:32;;;;;;;30.30;19.85;;;13.10;91.10;;;;;;6338605;22;20010;-77
2023/01/06 11:15:06;;;;;;;29.50;18.67;;;13.10;91.10;;;;;;6338629;22;20006;-77
2023/01/06 11:17:32;;;;;;;30.20;19.08;;;13.20;91.00;;;;;;6311109;22;20329;-78
2023/01/06 11:20:13;;;;;;;29.67;18.00;;;13.20;91.10;;;;;;6338593;22;19995;-78
2023/01/06 11:22:42;;;;;;;30.80;19.15;;;13.30;91.00;;;;;;6338969;22;20052;-77
2023/01/06 11:25:20;;;;;;;29.10;18.93;;;13.30;90.80;;;;;;6310691;22;20495;-77
2023/01/06 11:28:09;;;;;;;28.83;17.42;;;13.30;90.60;;;;;;6311381;22;20003;-77
2023/01/06 11:30:51;;;;;;;29.73;17.08;;;13.40;90.40;;;;;;6338253;22;20002;-77
2023/01/06 11:33:20;;;;;;;28.85;17.95;;;13.40;90.10;;;;;;6338550;22;20006;-77
2023/01/06 11:35:46;;;;;;;29.60;17.88;;;13.40;90.40;;;;;;6338773;22;19999;-77
2023/01/06 11:38:14;;;;;;;29.50;17.48;;;13.50;90.40;;;;;;6338580;22;20030;-78
2023/01/06 11:40:43;;;;;;;27.08;15.90;;;13.50;90.30;;;;;;6338535;22;20022;-77
2023/01/06 11:43:14;;;;;;;24.80;15.85;;;13.50;90.10;;;;;;6338720;22;19999;-78
2023/01/06 11:45:48;;;;;;;27.80;17.05;;;13.60;90.10;;;;;;6338478;22;20002;-79
2023/01/06 11:48:18;;;;;;;27.10;16.45;;;13.60;90.00;;;;;;6338070;22;20040;-77
2023/01/06 11:50:57;;;;;;;;;;;13.60;89.90;;;;;;6339086;22;20083;-78
2023/01/06 11:53:23;;;;;;;26.67;15.82;;;13.60;89.70;;;;;;6338285;22;19905;-78
2023/01/06 11:56:21;;;;;;;28.90;16.80;;;13.70;89.40;;;;;;6340174;22;20409;-78
2023/01/06 11:59:01;;;;;;;26.17;15.93;;;13.60;88.80;;;;;;6340541;22;20003;-78
2023/01/06 12:01:51;;;;;;;25.85;14.90;;;13.60;89.10;;;;;;6340136;22;20041;-78
2023/01/06 12:04:21;;;;;;;;;;;13.70;89.00;;;;;;6340639;22;20001;-77
2023/01/06 12:06:53;;;;;;;22.75;14.85;;;13.70;88.40;;;;;;6340137;22;19899;-78
2023/01/06 12:09:32;;;;;;;25.85;15.35;;;13.70;88.60;;;;;;6312452;22;20003;-78
2023/01/06 12:12:04;;;;;;;24.30;14.77;;;13.70;88.30;;;;;;6340271;22;20003;-78
2023/01/06 12:14:35;;;;;;;27.77;15.05;;;13.70;86.40;;;;;;6340196;22;20049;-78
2023/01/06 12:17:28;;;;;;;23.38;14.30;;;13.60;86.70;;;;;;6339613;22;20433;-78
2023/01/06 12:19:56;;;;;;;28.05;15.77;;;13.60;87.60;;;;;;6311809;22;20006;-78
2023/01/06 12:22:46;;;;;;;23.25;14.02;;;13.60;87.50;;;;;;6312620;22;20002;-78
2023/01/06 12:25:25;;;;;;;19.83;12.95;;;13.60;87.30;;;;;;6340490;22;19999;-78
2023/01/06 12:28:03;;;;;;;21.70;13.00;;;13.60;87.50;;;;;;6312666;22;20094;-78
2023/01/06 12:30:37;;;;;;;25.75;14.98;;;13.60;87.30;;;;;;6339890;22;19999;-77
2023/01/06 12:33:22;;;;;;;25.88;14.55;;;13.60;86.50;;;;;;6312181;22;20006;-78
2023/01/06 12:35:51;;;;;;;22.67;13.75;;;13.60;86.90;;;;;;6339886;22;20070;-78
2023/01/06 12:38:48;;;;;;;19.75;12.98;;;13.60;86.70;;;;;;6339905;22;20006;-77
2023/01/06 12:41:30;;;;;;;22.67;12.43;;;13.60;86.20;;;;;;6311654;22;20021;-78
2023/01/06 12:44:33;;;;;;;23.40;13.90;;;13.60;86.10;;;;;;6338874;22;20001;-78
2023/01/06 12:47:15;;;;;;;24.13;15.30;;;13.60;86.00;;;;;;6339177;22;20428;-78
2023/01/06 12:49:52;;;;;;;23.58;14.85;;;13.40;85.60;;;;;;6338792;22;19999;-78
2023/01/06 12:52:44;;;;;;;24.83;13.82;;;13.50;86.00;;;;;;6339344;22;20077;-78